Detall de PIREP

Printer-friendly versionPDF version

[2014/03/31 15:41:00]
Flight IATA:CT3249
Pilot Number:012
Company ICAO:CAT
Aircraft Type:B744/E
PAX:400
Departing Airport: LOWW
Destination Airport: LEPA
Alternate Airport:LEBL
Online: VATSIM
Route:OSPEN/M082F380 UM138 ABRUK UM984 DETSA//M082F390 UM984 DIVKO UN852 VERSO UL129 LUNIK
Flight Level:F390
No Slew and time accel
No pause
Crash detect
Detect pilot in Cockpit between each 30 and 45 minutes
15:41 Zero fuel Weight: 479204 Lbs, Fuel Weight: 94003 Lbs
15:41 VATSIM:LOWW 311520Z 28011KT CAVOK 19/05 Q1010 NOSIG
15:41 VATSIM:LEPA 311500Z 22008KT 9999 FEW018 17/12 Q1015 NOSIG
15:41 Parking Brakes off
15:47 Take-off
15:47 Take off Weight: 571536 Lbs
15:47 Wind: 276º @ 011 Knots Heading: 295º
15:47 POS N48º 06´ 53´´ E016º 33´ 28´´
15:47 Gear Up: 172 Knots
15:47 Flaps:3 at 173 Knots
15:47 Flaps:2 at 189 Knots
15:47 Flaps:1 at 201 Knots
15:48 Flaps:0 at 229 Knots
16:02 Wind:323º@023 Knots Heading: 255º Ground Speed: 471 Knots Altitude 36938 ft
16:13 TOC
16:13 Fuel Weight: 76769 Lb
16:17 Wind:267º@013 Knots Heading: 243º Ground Speed: 466 Knots Altitude 38992 ft
16:32 Wind:226º@013 Knots Heading: 233º Ground Speed: 467 Knots Altitude 38966 ft
16:47 Wind:233º@016 Knots Heading: 214º Ground Speed: 469 Knots Altitude 38966 ft
17:02 Wind:249º@022 Knots Heading: 247º Ground Speed: 463 Knots Altitude 39035 ft
17:17 Wind:259º@040 Knots Heading: 194º Ground Speed: 469 Knots Altitude 39022 ft
17:20 TOD
17:20 Fuel Weight: 54444 Lb
17:32 Wind:274º@010 Knots Heading: 179º Ground Speed: 342 Knots Altitude 14061 ft
17:37 Flaps:1 at 220 Knots
17:39 Flaps:2 at 203 Knots
17:39 Flaps:3 at 189 Knots
17:40 Flaps:4 at 192 Knots
17:43 Gear Down: 178 Knots
17:43 Flaps:5 at 175 Knots
17:45 Flaps:6 at 164 Knots
17:47 Wind:219º@008 Knots Heading: 237º Ground Speed: 161 Knots Altitude 721 ft
17:47 TouchDown:Rate -358 ft/min Speed: 135 Knots
17:48 VATSIM:LEPA 311730Z 22007KT 9999 FEW018 15/12 Q1015 NOSIG
17:48 Land
17:48 Wind:219º@009 Knots
17:48 Heading: 238º
17:48 Flight Duration: 02:01
17:48 Landing Weight: 527225 Lbs
17:48 POS N39º 32´ 53´´ E002º 44´ 47´´
17:51 Parking brakes on
17:51 Block to Block Duration: 02:10
17:51 Final Fuel: 47277 Lbls
17:51 Spent Fuel: 46726 Lbls
17:51 Flight Length: 844 NM
17:51 TOD Land Length: 137 NM

Exportar CSV

Powered by Drupal - Modified by Danger4k